sensor_id;sensor_type;location;lat;lon;timestamp;temperature;humidity
11304;DHT22;5707;49.588;12.148;2022-12-18T00:02:12;-10.80;99.90
11304;DHT22;5707;49.588;12.148;2022-12-18T00:04:38;-10.70;99.90
11304;DHT22;5707;49.588;12.148;2022-12-18T00:07:04;-10.70;99.90
11304;DHT22;5707;49.588;12.148;2022-12-18T00:09:29;-10.80;99.90
11304;DHT22;5707;49.588;12.148;2022-12-18T00:11:55;-10.80;99.90
11304;DHT22;5707;49.588;12.148;2022-12-18T00:14:20;-10.80;99.90
11304;DHT22;5707;49.588;12.148;2022-12-18T00:16:46;-10.70;99.90
11304;DHT22;5707;49.588;12.148;2022-12-18T00:19:13;-10.70;99.90
11304;DHT22;5707;49.588;12.148;2022-12-18T00:21:39;-10.70;99.90
11304;DHT22;5707;49.588;12.148;2022-12-18T00:24:05;-10.70;99.90
11304;DHT22;5707;49.588;12.148;2022-12-18T00:26:33;-10.60;99.90
11304;DHT22;5707;49.588;12.148;2022-12-18T00:29:00;-10.60;99.90
11304;DHT22;5707;49.588;12.148;2022-12-18T00:31:26;-10.50;99.90
11304;DHT22;5707;49.588;12.148;2022-12-18T00:33:56;-10.50;99.90
11304;DHT22;5707;49.588;12.148;2022-12-18T00:36:25;-10.50;99.90
11304;DHT22;5707;49.588;12.148;2022-12-18T00:38:53;-10.40;99.90
11304;DHT22;5707;49.588;12.148;2022-12-18T00:41:19;-10.30;99.90
11304;DHT22;5707;49.588;12.148;2022-12-18T00:44:04;-10.30;99.90
11304;DHT22;5707;49.588;12.148;2022-12-18T00:46:31;-10.20;99.90
11304;DHT22;5707;49.588;12.148;2022-12-18T00:48:56;-10.20;99.90
11304;DHT22;5707;49.588;12.148;2022-12-18T00:51:23;-10.10;99.90
11304;DHT22;5707;49.588;12.148;2022-12-18T00:53:49;-10.10;99.90
11304;DHT22;5707;49.588;12.148;2022-12-18T00:56:15;-10.10;99.90
11304;DHT22;5707;49.588;12.148;2022-12-18T00:58:40;-10.10;99.90
11304;DHT22;5707;49.588;12.148;2022-12-18T01:01:06;-10.10;99.90
11304;DHT22;5707;49.588;12.148;2022-12-18T01:03:32;-10.10;99.90
11304;DHT22;5707;49.588;12.148;2022-12-18T01:05:57;-10.10;99.90
11304;DHT22;5707;49.588;12.148;2022-12-18T01:08:23;-10.10;99.90
11304;DHT22;5707;49.588;12.148;2022-12-18T01:10:49;-10.10;99.90
11304;DHT22;5707;49.588;12.148;2022-12-18T01:13:14;-10.00;99.90
11304;DHT22;5707;49.588;12.148;2022-12-18T01:15:40;-10.00;99.90
11304;DHT22;5707;49.588;12.148;2022-12-18T01:18:06;-9.90;99.90
11304;DHT22;5707;49.588;12.148;2022-12-18T01:20:32;-9.90;99.90
11304;DHT22;5707;49.588;12.148;2022-12-18T01:22:58;-9.80;99.90
11304;DHT22;5707;49.588;12.148;2022-12-18T01:25:24;-9.80;99.90
11304;DHT22;5707;49.588;12.148;2022-12-18T01:27:49;-9.80;99.90
11304;DHT22;5707;49.588;12.148;2022-12-18T01:30:15;-9.70;99.90
11304;DHT22;5707;49.588;12.148;2022-12-18T01:32:40;-9.70;99.90
11304;DHT22;5707;49.588;12.148;2022-12-18T01:35:06;-9.60;99.90
11304;DHT22;5707;49.588;12.148;2022-12-18T01:37:32;-9.60;99.90
11304;DHT22;5707;49.588;12.148;2022-12-18T01:39:58;-9.60;99.90
11304;DHT22;5707;49.588;12.148;2022-12-18T01:42:23;-9.60;99.90
11304;DHT22;5707;49.588;12.148;2022-12-18T01:47:49;-9.50;99.90
11304;DHT22;5707;49.588;12.148;2022-12-18T01:50:45;-9.50;99.90
11304;DHT22;5707;49.588;12.148;2022-12-18T01:53:20;-9.40;99.90
11304;DHT22;5707;49.588;12.148;2022-12-18T01:55:48;-9.50;99.90
11304;DHT22;5707;49.588;12.148;2022-12-18T01:58:14;-9.40;99.90
11304;DHT22;5707;49.588;12.148;2022-12-18T02:00:40;-9.40;99.90
11304;DHT22;5707;49.588;12.148;2022-12-18T02:03:06;-9.40;99.90
11304;DHT22;5707;49.588;12.148;2022-12-18T02:05:47;-9.40;99.90
11304;DHT22;5707;49.588;12.148;2022-12-18T02:08:33;-9.40;99.90
11304;DHT22;5707;49.588;12.148;2022-12-18T02:11:16;-9.40;99.90
11304;DHT22;5707;49.588;12.148;2022-12-18T02:16:52;-9.40;99.90
11304;DHT22;5707;49.588;12.148;2022-12-18T02:28:13;-9.30;99.90
11304;DHT22;5707;49.588;12.148;2022-12-18T02:30:42;-9.30;99.90
11304;DHT22;5707;49.588;12.148;2022-12-18T02:33:09;-9.40;99.90
11304;DHT22;5707;49.588;12.148;2022-12-18T02:35:37;-9.50;99.90
11304;DHT22;5707;49.588;12.148;2022-12-18T02:38:04;-9.60;99.90
11304;DHT22;5707;49.588;12.148;2022-12-18T02:40:30;-9.70;99.90
11304;DHT22;5707;49.588;12.148;2022-12-18T02:43:09;-9.80;99.90
11304;DHT22;5707;49.588;12.148;2022-12-18T02:45:34;-9.90;99.90
11304;DHT22;5707;49.588;12.148;2022-12-18T02:48:01;-9.90;99.90
11304;DHT22;5707;49.588;12.148;2022-12-18T02:50:44;-10.00;99.90
11304;DHT22;5707;49.588;12.148;2022-12-18T02:55:54;-10.00;99.90
11304;DHT22;5707;49.588;12.148;2022-12-18T03:03:56;-10.00;99.90
11304;DHT22;5707;49.588;12.148;2022-12-18T03:06:29;-9.90;99.90
11304;DHT22;5707;49.588;12.148;2022-12-18T03:09:00;-9.90;99.90
11304;DHT22;5707;49.588;12.148;2022-12-18T03:11:31;-9.80;99.90
11304;DHT22;5707;49.588;12.148;2022-12-18T03:14:18;-9.70;99.90
11304;DHT22;5707;49.588;12.148;2022-12-18T03:16:48;-9.70;99.90
11304;DHT22;5707;49.588;12.148;2022-12-18T03:19:20;-9.80;99.90
11304;DHT22;5707;49.588;12.148;2022-12-18T03:21:49;-9.80;99.90
11304;DHT22;5707;49.588;12.148;2022-12-18T03:24:17;-9.80;99.90
11304;DHT22;5707;49.588;12.148;2022-12-18T03:26:46;-9.80;99.90
11304;DHT22;5707;49.588;12.148;2022-12-18T03:31:54;-9.90;99.90
11304;DHT22;5707;49.588;12.148;2022-12-18T03:34:28;-10.00;99.90
11304;DHT22;5707;49.588;12.148;2022-12-18T03:36:55;-10.00;99.90
11304;DHT22;5707;49.588;12.148;2022-12-18T03:39:21;-10.10;99.90
11304;DHT22;5707;49.588;12.148;2022-12-18T03:42:18;-10.10;99.90
11304;DHT22;5707;49.588;12.148;2022-12-18T03:45:06;-10.20;99.90
11304;DHT22;5707;49.588;12.148;2022-12-18T03:50:24;-10.30;99.90
11304;DHT22;5707;49.588;12.148;2022-12-18T03:53:03;-10.30;99.90
11304;DHT22;5707;49.588;12.148;2022-12-18T03:55:33;-10.40;99.90
11304;DHT22;5707;49.588;12.148;2022-12-18T03:58:01;-10.40;99.90
11304;DHT22;5707;49.588;12.148;2022-12-18T04:00:29;-10.50;99.90
11304;DHT22;5707;49.588;12.148;2022-12-18T04:02:57;-10.50;99.90
11304;DHT22;5707;49.588;12.148;2022-12-18T04:05:25;-10.50;99.90
11304;DHT22;5707;49.588;12.148;2022-12-18T04:07:53;-10.50;99.90
11304;DHT22;5707;49.588;12.148;2022-12-18T04:10:19;-10.50;99.90
11304;DHT22;5707;49.588;12.148;2022-12-18T04:12:45;-10.50;99.90
11304;DHT22;5707;49.588;12.148;2022-12-18T04:15:12;-10.50;99.90
11304;DHT22;5707;49.588;12.148;2022-12-18T04:17:39;-10.50;99.90
11304;DHT22;5707;49.588;12.148;2022-12-18T04:20:06;-10.50;99.90
11304;DHT22;5707;49.588;12.148;2022-12-18T04:22:32;-10.50;99.90
11304;DHT22;5707;49.588;12.148;2022-12-18T04:24:57;-10.50;99.90
11304;DHT22;5707;49.588;12.148;2022-12-18T04:27:23;-10.60;99.90
11304;DHT22;5707;49.588;12.148;2022-12-18T04:29:49;-10.60;99.90
11304;DHT22;5707;49.588;12.148;2022-12-18T04:32:14;-10.60;99.90
11304;DHT22;5707;49.588;12.148;2022-12-18T04:34:40;-10.60;99.90
11304;DHT22;5707;49.588;12.148;2022-12-18T04:37:05;-10.60;99.90
11304;DHT22;5707;49.588;12.148;2022-12-18T04:39:31;-10.60;99.90
11304;DHT22;5707;49.588;12.148;2022-12-18T04:41:56;-10.60;99.90
11304;DHT22;5707;49.588;12.148;2022-12-18T04:44:25;-10.60;99.90
11304;DHT22;5707;49.588;12.148;2022-12-18T04:46:50;-10.70;99.90
11304;DHT22;5707;49.588;12.148;2022-12-18T04:49:16;-10.80;99.90
11304;DHT22;5707;49.588;12.148;2022-12-18T04:51:42;-10.90;99.90
11304;DHT22;5707;49.588;12.148;2022-12-18T04:54:07;-10.90;99.90
11304;DHT22;5707;49.588;12.148;2022-12-18T04:56:33;-10.90;99.90
11304;DHT22;5707;49.588;12.148;2022-12-18T04:58:58;-10.90;99.90
11304;DHT22;5707;49.588;12.148;2022-12-18T05:01:24;-10.80;99.90
11304;DHT22;5707;49.588;12.148;2022-12-18T05:03:51;-10.80;99.90
11304;DHT22;5707;49.588;12.148;2022-12-18T05:06:17;-10.80;99.90
11304;DHT22;5707;49.588;12.148;2022-12-18T05:08:43;-10.80;99.90
11304;DHT22;5707;49.588;12.148;2022-12-18T05:11:13;-10.90;99.90
11304;DHT22;5707;49.588;12.148;2022-12-18T05:13:41;-10.90;99.90
11304;DHT22;5707;49.588;12.148;2022-12-18T05:16:08;-10.90;99.90
11304;DHT22;5707;49.588;12.148;2022-12-18T05:18:34;-10.90;99.90
11304;DHT22;5707;49.588;12.148;2022-12-18T05:21:00;-10.90;99.90
11304;DHT22;5707;49.588;12.148;2022-12-18T05:23:26;-11.00;99.90
11304;DHT22;5707;49.588;12.148;2022-12-18T05:25:57;-11.00;99.90
11304;DHT22;5707;49.588;12.148;2022-12-18T05:28:25;-11.00;99.90
11304;DHT22;5707;49.588;12.148;2022-12-18T05:30:52;-11.10;99.90
11304;DHT22;5707;49.588;12.148;2022-12-18T05:33:22;-11.10;99.90
11304;DHT22;5707;49.588;12.148;2022-12-18T05:35:56;-11.10;99.90
11304;DHT22;5707;49.588;12.148;2022-12-18T05:38:23;-11.10;99.90
11304;DHT22;5707;49.588;12.148;2022-12-18T05:40:51;-11.00;99.90
11304;DHT22;5707;49.588;12.148;2022-12-18T05:43:17;-11.00;99.90
11304;DHT22;5707;49.588;12.148;2022-12-18T05:45:44;-11.00;99.90
11304;DHT22;5707;49.588;12.148;2022-12-18T05:48:13;-11.00;99.90
11304;DHT22;5707;49.588;12.148;2022-12-18T05:50:40;-11.10;99.90
11304;DHT22;5707;49.588;12.148;2022-12-18T05:53:06;-11.20;99.90
11304;DHT22;5707;49.588;12.148;2022-12-18T05:55:37;-11.20;99.90
11304;DHT22;5707;49.588;12.148;2022-12-18T05:58:04;-11.20;99.90
11304;DHT22;5707;49.588;12.148;2022-12-18T06:00:30;-11.20;99.90
11304;DHT22;5707;49.588;12.148;2022-12-18T06:02:57;-11.10;99.90
11304;DHT22;5707;49.588;12.148;2022-12-18T06:05:23;-11.10;99.90
11304;DHT22;5707;49.588;12.148;2022-12-18T06:07:48;-11.00;99.90
11304;DHT22;5707;49.588;12.148;2022-12-18T06:10:14;-11.00;99.90
11304;DHT22;5707;49.588;12.148;2022-12-18T06:12:39;-11.00;99.90
11304;DHT22;5707;49.588;12.148;2022-12-18T06:15:05;-11.00;99.90
11304;DHT22;5707;49.588;12.148;2022-12-18T06:17:32;-11.00;99.90
11304;DHT22;5707;49.588;12.148;2022-12-18T06:19:58;-11.10;99.90
11304;DHT22;5707;49.588;12.148;2022-12-18T06:22:24;-11.10;99.90
11304;DHT22;5707;49.588;12.148;2022-12-18T06:24:50;-11.10;99.90
11304;DHT22;5707;49.588;12.148;2022-12-18T06:27:16;-11.20;99.90
11304;DHT22;5707;49.588;12.148;2022-12-18T06:29:42;-11.20;99.90
11304;DHT22;5707;49.588;12.148;2022-12-18T06:32:08;-11.30;99.90
11304;DHT22;5707;49.588;12.148;2022-12-18T06:34:34;-11.40;99.90
11304;DHT22;5707;49.588;12.148;2022-12-18T06:37:00;-11.50;99.90
11304;DHT22;5707;49.588;12.148;2022-12-18T06:39:27;-11.50;99.90
11304;DHT22;5707;49.588;12.148;2022-12-18T06:41:53;-11.40;99.90
11304;DHT22;5707;49.588;12.148;2022-12-18T06:44:18;-11.40;99.90
11304;DHT22;5707;49.588;12.148;2022-12-18T06:46:45;-11.40;99.90
11304;DHT22;5707;49.588;12.148;2022-12-18T06:49:10;-11.30;99.90
11304;DHT22;5707;49.588;12.148;2022-12-18T06:51:36;-11.30;99.90
11304;DHT22;5707;49.588;12.148;2022-12-18T06:54:02;-11.30;99.90
11304;DHT22;5707;49.588;12.148;2022-12-18T06:56:27;-11.40;99.90
11304;DHT22;5707;49.588;12.148;2022-12-18T06:58:53;-11.40;99.90
11304;DHT22;5707;49.588;12.148;2022-12-18T07:01:19;-11.50;99.90
11304;DHT22;5707;49.588;12.148;2022-12-18T07:03:44;-11.40;99.90
11304;DHT22;5707;49.588;12.148;2022-12-18T07:06:18;-11.50;99.90
11304;DHT22;5707;49.588;12.148;2022-12-18T07:08:45;-11.40;99.90
11304;DHT22;5707;49.588;12.148;2022-12-18T07:11:11;-11.40;99.90
11304;DHT22;5707;49.588;12.148;2022-12-18T07:13:37;-11.40;99.90
11304;DHT22;5707;49.588;12.148;2022-12-18T07:16:06;-11.50;99.90
11304;DHT22;5707;49.588;12.148;2022-12-18T07:18:32;-11.50;99.90
11304;DHT22;5707;49.588;12.148;2022-12-18T07:20:57;-11.50;99.90
11304;DHT22;5707;49.588;12.148;2022-12-18T07:23:23;-11.50;99.90
11304;DHT22;5707;49.588;12.148;2022-12-18T07:25:50;-11.50;99.90
11304;DHT22;5707;49.588;12.148;2022-12-18T07:28:15;-11.50;99.90
11304;DHT22;5707;49.588;12.148;2022-12-18T07:30:41;-11.50;99.90
11304;DHT22;5707;49.588;12.148;2022-12-18T07:33:06;-11.50;99.90
11304;DHT22;5707;49.588;12.148;2022-12-18T07:35:33;-11.40;99.90
11304;DHT22;5707;49.588;12.148;2022-12-18T07:38:02;-11.40;99.90
11304;DHT22;5707;49.588;12.148;2022-12-18T07:40:27;-11.40;99.90
11304;DHT22;5707;49.588;12.148;2022-12-18T07:42:53;-11.40;99.90
11304;DHT22;5707;49.588;12.148;2022-12-18T07:45:18;-11.40;99.90
11304;DHT22;5707;49.588;12.148;2022-12-18T07:47:44;-11.40;99.90
11304;DHT22;5707;49.588;12.148;2022-12-18T07:50:09;-11.40;99.90
11304;DHT22;5707;49.588;12.148;2022-12-18T07:52:35;-11.40;99.90
11304;DHT22;5707;49.588;12.148;2022-12-18T07:55:00;-11.50;99.90
11304;DHT22;5707;49.588;12.148;2022-12-18T07:57:26;-11.50;99.90
11304;DHT22;5707;49.588;12.148;2022-12-18T07:59:52;-11.50;99.90
11304;DHT22;5707;49.588;12.148;2022-12-18T08:02:17;-11.40;99.90
11304;DHT22;5707;49.588;12.148;2022-12-18T08:04:43;-11.30;99.90
11304;DHT22;5707;49.588;12.148;2022-12-18T08:07:08;-11.20;99.90
11304;DHT22;5707;49.588;12.148;2022-12-18T08:09:34;-11.10;99.90
11304;DHT22;5707;49.588;12.148;2022-12-18T08:12:00;-11.00;99.90
11304;DHT22;5707;49.588;12.148;2022-12-18T08:14:25;-10.90;99.90
11304;DHT22;5707;49.588;12.148;2022-12-18T08:16:51;-10.70;99.90
11304;DHT22;5707;49.588;12.148;2022-12-18T08:19:17;-10.70;99.90
11304;DHT22;5707;49.588;12.148;2022-12-18T08:21:42;-10.60;99.90
11304;DHT22;5707;49.588;12.148;2022-12-18T08:24:09;-10.60;99.90
11304;DHT22;5707;49.588;12.148;2022-12-18T08:26:34;-10.70;99.90
11304;DHT22;5707;49.588;12.148;2022-12-18T08:29:00;-10.90;99.90
11304;DHT22;5707;49.588;12.148;2022-12-18T08:31:27;-11.00;99.90
11304;DHT22;5707;49.588;12.148;2022-12-18T08:33:53;-11.10;99.90
11304;DHT22;5707;49.588;12.148;2022-12-18T08:36:20;-11.10;99.90
11304;DHT22;5707;49.588;12.148;2022-12-18T08:38:46;-11.20;99.90
11304;DHT22;5707;49.588;12.148;2022-12-18T08:41:14;-11.20;99.90
11304;DHT22;5707;49.588;12.148;2022-12-18T08:43:40;-11.30;99.90
11304;DHT22;5707;49.588;12.148;2022-12-18T08:46:26;-11.40;99.90
11304;DHT22;5707;49.588;12.148;2022-12-18T08:48:53;-11.40;99.90
11304;DHT22;5707;49.588;12.148;2022-12-18T08:51:19;-11.40;99.90
11304;DHT22;5707;49.588;12.148;2022-12-18T08:53:45;-11.30;99.90
11304;DHT22;5707;49.588;12.148;2022-12-18T08:56:11;-11.20;99.90
11304;DHT22;5707;49.588;12.148;2022-12-18T08:58:37;-11.00;99.90
11304;DHT22;5707;49.588;12.148;2022-12-18T09:01:04;-10.90;99.90
11304;DHT22;5707;49.588;12.148;2022-12-18T09:03:30;-10.80;99.90
11304;DHT22;5707;49.588;12.148;2022-12-18T09:05:56;-10.70;99.90
11304;DHT22;5707;49.588;12.148;2022-12-18T09:08:21;-10.60;99.90
11304;DHT22;5707;49.588;12.148;2022-12-18T09:10:49;-10.50;99.90
11304;DHT22;5707;49.588;12.148;2022-12-18T09:13:15;-10.40;99.90
11304;DHT22;5707;49.588;12.148;2022-12-18T09:15:43;-10.20;99.90
11304;DHT22;5707;49.588;12.148;2022-12-18T09:18:10;-10.10;99.90
11304;DHT22;5707;49.588;12.148;2022-12-18T09:20:36;-10.10;99.90
11304;DHT22;5707;49.588;12.148;2022-12-18T09:23:02;-10.10;99.90
11304;DHT22;5707;49.588;12.148;2022-12-18T09:25:29;-10.00;99.90
11304;DHT22;5707;49.588;12.148;2022-12-18T09:28:03;-10.00;99.90
11304;DHT22;5707;49.588;12.148;2022-12-18T09:30:29;-10.00;99.90
11304;DHT22;5707;49.588;12.148;2022-12-18T09:32:55;-10.00;99.90
11304;DHT22;5707;49.588;12.148;2022-12-18T09:35:20;-10.00;99.90
11304;DHT22;5707;49.588;12.148;2022-12-18T09:37:46;-10.10;99.90
11304;DHT22;5707;49.588;12.148;2022-12-18T09:40:16;-10.10;99.90
11304;DHT22;5707;49.588;12.148;2022-12-18T09:42:48;-10.00;99.90
11304;DHT22;5707;49.588;12.148;2022-12-18T09:45:16;-10.00;99.90
11304;DHT22;5707;49.588;12.148;2022-12-18T09:47:43;-10.00;99.90
11304;DHT22;5707;49.588;12.148;2022-12-18T09:52:46;-10.00;99.90
11304;DHT22;5707;49.588;12.148;2022-12-18T09:55:36;-9.90;99.90
11304;DHT22;5707;49.588;12.148;2022-12-18T09:58:26;-9.80;99.90
11304;DHT22;5707;49.588;12.148;2022-12-18T10:00:54;-9.70;99.90
11304;DHT22;5707;49.588;12.148;2022-12-18T10:03:20;-9.70;99.90
11304;DHT22;5707;49.588;12.148;2022-12-18T10:08:31;-9.60;99.90
11304;DHT22;5707;49.588;12.148;2022-12-18T10:11:13;-9.50;99.90
11304;DHT22;5707;49.588;12.148;2022-12-18T10:13:54;-9.40;99.90
11304;DHT22;5707;49.588;12.148;2022-12-18T10:24:39;-9.30;99.90
11304;DHT22;5707;49.588;12.148;2022-12-18T10:27:26;-9.30;99.90
11304;DHT22;5707;49.588;12.148;2022-12-18T10:29:53;-9.20;99.90
11304;DHT22;5707;49.588;12.148;2022-12-18T10:32:24;-9.00;99.90
11304;DHT22;5707;49.588;12.148;2022-12-18T10:34:53;-8.90;99.90
11304;DHT22;5707;49.588;12.148;2022-12-18T10:37:21;-8.80;99.90
11304;DHT22;5707;49.588;12.148;2022-12-18T10:42:34;-8.70;99.90
11304;DHT22;5707;49.588;12.148;2022-12-18T10:45:14;-8.60;99.90
11304;DHT22;5707;49.588;12.148;2022-12-18T10:47:45;-8.60;99.90
11304;DHT22;5707;49.588;12.148;2022-12-18T10:50:30;-8.50;99.90
11304;DHT22;5707;49.588;12.148;2022-12-18T10:53:02;-8.50;99.90
11304;DHT22;5707;49.588;12.148;2022-12-18T10:55:37;-8.50;99.90
11304;DHT22;5707;49.588;12.148;2022-12-18T10:58:39;-8.40;99.90
11304;DHT22;5707;49.588;12.148;2022-12-18T11:03:46;-8.30;99.90
11304;DHT22;5707;49.588;12.148;2022-12-18T11:06:15;-8.20;99.90
11304;DHT22;5707;49.588;12.148;2022-12-18T11:08:44;-8.20;99.90
11304;DHT22;5707;49.588;12.148;2022-12-18T11:11:21;-8.20;99.90
11304;DHT22;5707;49.588;12.148;2022-12-18T11:16:28;-8.10;99.90
11304;DHT22;5707;49.588;12.148;2022-12-18T11:19:12;-8.10;99.90
11304;DHT22;5707;49.588;12.148;2022-12-18T11:21:40;-7.90;99.90
11304;DHT22;5707;49.588;12.148;2022-12-18T11:24:34;-7.80;99.90
11304;DHT22;5707;49.588;12.148;2022-12-18T11:27:02;-7.70;99.90
11304;DHT22;5707;49.588;12.148;2022-12-18T11:29:37;-7.50;99.90
11304;DHT22;5707;49.588;12.148;2022-12-18T11:32:38;-7.50;99.90
11304;DHT22;5707;49.588;12.148;2022-12-18T11:35:13;-7.40;99.90
11304;DHT22;5707;49.588;12.148;2022-12-18T11:37:43;-7.30;99.90
11304;DHT22;5707;49.588;12.148;2022-12-18T11:40:19;-7.20;99.90
11304;DHT22;5707;49.588;12.148;2022-12-18T11:45:30;-6.90;99.90
11304;DHT22;5707;49.588;12.148;2022-12-18T11:48:14;-6.80;99.90
11304;DHT22;5707;49.588;12.148;2022-12-18T11:50:57;-6.70;99.90
11304;DHT22;5707;49.588;12.148;2022-12-18T11:53:25;-6.70;99.90
11304;DHT22;5707;49.588;12.148;2022-12-18T11:58:50;-6.50;99.90
11304;DHT22;5707;49.588;12.148;2022-12-18T12:01:46;-6.50;99.90
11304;DHT22;5707;49.588;12.148;2022-12-18T12:04:26;-6.40;99.90
11304;DHT22;5707;49.588;12.148;2022-12-18T12:18:16;-6.30;99.90
11304;DHT22;5707;49.588;12.148;2022-12-18T12:21:08;-6.30;99.90
11304;DHT22;5707;49.588;12.148;2022-12-18T12:23:52;-6.30;99.90
11304;DHT22;5707;49.588;12.148;2022-12-18T12:26:43;-6.20;99.90
11304;DHT22;5707;49.588;12.148;2022-12-18T12:29:26;-6.20;99.90
11304;DHT22;5707;49.588;12.148;2022-12-18T12:39:40;-6.30;99.90
11304;DHT22;5707;49.588;12.148;2022-12-18T12:45:18;-6.40;99.90
11304;DHT22;5707;49.588;12.148;2022-12-18T12:47:48;-6.40;99.90
11304;DHT22;5707;49.588;12.148;2022-12-18T12:50:17;-6.30;99.90
11304;DHT22;5707;49.588;12.148;2022-12-18T12:52:52;-6.30;99.90
11304;DHT22;5707;49.588;12.148;2022-12-18T12:55:27;-6.30;99.90
11304;DHT22;5707;49.588;12.148;2022-12-18T13:00:19;-6.30;99.90
11304;DHT22;5707;49.588;12.148;2022-12-18T13:03:03;-6.30;99.90
11304;DHT22;5707;49.588;12.148;2022-12-18T13:05:40;-6.30;99.90
11304;DHT22;5707;49.588;12.148;2022-12-18T13:08:12;-6.20;99.90
11304;DHT22;5707;49.588;12.148;2022-12-18T13:10:47;-6.10;99.90
11304;DHT22;5707;49.588;12.148;2022-12-18T13:13:14;-5.90;99.90
11304;DHT22;5707;49.588;12.148;2022-12-18T13:15:44;-5.90;99.90
11304;DHT22;5707;49.588;12.148;2022-12-18T13:21:17;-5.70;99.90
11304;DHT22;5707;49.588;12.148;2022-12-18T13:23:44;-5.70;99.90
11304;DHT22;5707;49.588;12.148;2022-12-18T13:31:15;-5.60;99.90
11304;DHT22;5707;49.588;12.148;2022-12-18T13:36:41;-5.50;99.90
11304;DHT22;5707;49.588;12.148;2022-12-18T13:41:44;-5.50;99.90
11304;DHT22;5707;49.588;12.148;2022-12-18T13:44:33;-5.50;99.90
11304;DHT22;5707;49.588;12.148;2022-12-18T13:47:00;-5.60;99.90
11304;DHT22;5707;49.588;12.148;2022-12-18T13:52:03;-5.80;99.90
11304;DHT22;5707;49.588;12.148;2022-12-18T13:54:40;-5.90;99.90
11304;DHT22;5707;49.588;12.148;2022-12-18T13:57:31;-6.00;99.90
11304;DHT22;5707;49.588;12.148;2022-12-18T13:59:58;-6.10;99.90
11304;DHT22;5707;49.588;12.148;2022-12-18T14:02:27;-6.20;99.90
11304;DHT22;5707;49.588;12.148;2022-12-18T14:04:53;-6.40;99.90
11304;DHT22;5707;49.588;12.148;2022-12-18T14:07:22;-6.40;99.90
11304;DHT22;5707;49.588;12.148;2022-12-18T14:09:54;-6.50;99.90
11304;DHT22;5707;49.588;12.148;2022-12-18T14:12:30;-6.60;99.90
11304;DHT22;5707;49.588;12.148;2022-12-18T14:17:54;-6.70;99.90
11304;DHT22;5707;49.588;12.148;2022-12-18T14:20:21;-6.80;99.90
11304;DHT22;5707;49.588;12.148;2022-12-18T14:22:48;-6.90;99.90
11304;DHT22;5707;49.588;12.148;2022-12-18T14:25:23;-7.00;99.90
11304;DHT22;5707;49.588;12.148;2022-12-18T14:30:49;-7.20;99.90
11304;DHT22;5707;49.588;12.148;2022-12-18T14:33:23;-7.30;99.90
11304;DHT22;5707;49.588;12.148;2022-12-18T14:36:01;-7.40;99.90
11304;DHT22;5707;49.588;12.148;2022-12-18T14:38:36;-7.50;99.90
11304;DHT22;5707;49.588;12.148;2022-12-18T14:41:11;-7.60;99.90
11304;DHT22;5707;49.588;12.148;2022-12-18T14:43:39;-7.70;99.90
11304;DHT22;5707;49.588;12.148;2022-12-18T14:46:29;-7.80;99.90
11304;DHT22;5707;49.588;12.148;2022-12-18T14:48:55;-7.90;99.90
11304;DHT22;5707;49.588;12.148;2022-12-18T14:51:23;-8.00;99.90
11304;DHT22;5707;49.588;12.148;2022-12-18T14:59:37;-8.20;99.90
11304;DHT22;5707;49.588;12.148;2022-12-18T15:02:22;-8.30;99.90
11304;DHT22;5707;49.588;12.148;2022-12-18T15:05:00;-8.30;99.90
11304;DHT22;5707;49.588;12.148;2022-12-18T15:07:26;-8.40;99.90
11304;DHT22;5707;49.588;12.148;2022-12-18T15:12:38;-8.60;99.90
11304;DHT22;5707;49.588;12.148;2022-12-18T15:15:41;-8.60;99.90
11304;DHT22;5707;49.588;12.148;2022-12-18T15:18:00;-8.70;99.90
11304;DHT22;5707;49.588;12.148;2022-12-18T15:20:26;-8.80;99.90
11304;DHT22;5707;49.588;12.148;2022-12-18T15:22:52;-8.80;99.90
11304;DHT22;5707;49.588;12.148;2022-12-18T15:25:36;-8.90;99.90
11304;DHT22;5707;49.588;12.148;2022-12-18T15:28:03;-8.90;99.90
11304;DHT22;5707;49.588;12.148;2022-12-18T15:30:38;-9.00;99.90
11304;DHT22;5707;49.588;12.148;2022-12-18T15:33:22;-9.00;99.90
11304;DHT22;5707;49.588;12.148;2022-12-18T15:35:59;-9.00;99.90
11304;DHT22;5707;49.588;12.148;2022-12-18T15:38:25;-9.10;99.90
11304;DHT22;5707;49.588;12.148;2022-12-18T15:40:53;-9.10;99.90
11304;DHT22;5707;49.588;12.148;2022-12-18T15:43:21;-9.10;99.90
11304;DHT22;5707;49.588;12.148;2022-12-18T15:46:18;-9.10;99.90
11304;DHT22;5707;49.588;12.148;2022-12-18T15:48:49;-9.10;99.90
11304;DHT22;5707;49.588;12.148;2022-12-18T15:51:35;-9.10;99.90
11304;DHT22;5707;49.588;12.148;2022-12-18T15:54:04;-9.10;99.90
11304;DHT22;5707;49.588;12.148;2022-12-18T15:56:31;-9.10;99.90
11304;DHT22;5707;49.588;12.148;2022-12-18T15:59:17;-9.10;99.90
11304;DHT22;5707;49.588;12.148;2022-12-18T16:01:46;-9.10;99.90
11304;DHT22;5707;49.588;12.148;2022-12-18T16:04:14;-9.10;99.90
11304;DHT22;5707;49.588;12.148;2022-12-18T16:06:40;-9.20;99.90
11304;DHT22;5707;49.588;12.148;2022-12-18T16:09:06;-9.20;99.90
11304;DHT22;5707;49.588;12.148;2022-12-18T16:11:33;-9.30;99.90
11304;DHT22;5707;49.588;12.148;2022-12-18T16:14:26;-9.30;99.90
11304;DHT22;5707;49.588;12.148;2022-12-18T16:16:55;-9.30;99.90
11304;DHT22;5707;49.588;12.148;2022-12-18T16:19:21;-9.40;99.90
11304;DHT22;5707;49.588;12.148;2022-12-18T16:21:47;-9.40;99.90
11304;DHT22;5707;49.588;12.148;2022-12-18T16:24:21;-9.30;99.90
11304;DHT22;5707;49.588;12.148;2022-12-18T16:26:48;-9.30;99.90
11304;DHT22;5707;49.588;12.148;2022-12-18T16:29:14;-9.30;99.90
11304;DHT22;5707;49.588;12.148;2022-12-18T16:31:40;-9.30;99.90
11304;DHT22;5707;49.588;12.148;2022-12-18T16:34:23;-9.30;99.90
11304;DHT22;5707;49.588;12.148;2022-12-18T16:36:51;-9.30;99.90
11304;DHT22;5707;49.588;12.148;2022-12-18T16:39:17;-9.30;99.90
11304;DHT22;5707;49.588;12.148;2022-12-18T16:41:43;-9.30;99.90
11304;DHT22;5707;49.588;12.148;2022-12-18T16:44:09;-9.40;99.90
11304;DHT22;5707;49.588;12.148;2022-12-18T16:46:36;-9.40;99.90
11304;DHT22;5707;49.588;12.148;2022-12-18T16:49:01;-9.40;99.90
11304;DHT22;5707;49.588;12.148;2022-12-18T16:51:27;-9.40;99.90
11304;DHT22;5707;49.588;12.148;2022-12-18T16:53:54;-9.40;99.90
11304;DHT22;5707;49.588;12.148;2022-12-18T16:56:20;-9.40;99.90
11304;DHT22;5707;49.588;12.148;2022-12-18T16:58:57;-9.40;99.90
11304;DHT22;5707;49.588;12.148;2022-12-18T17:01:24;-9.40;99.90
11304;DHT22;5707;49.588;12.148;2022-12-18T17:03:53;-9.40;99.90
11304;DHT22;5707;49.588;12.148;2022-12-18T17:06:21;-9.40;99.90
11304;DHT22;5707;49.588;12.148;2022-12-18T17:08:47;-9.40;99.90
11304;DHT22;5707;49.588;12.148;2022-12-18T17:11:13;-9.40;99.90
11304;DHT22;5707;49.588;12.148;2022-12-18T17:13:39;-9.30;99.90
11304;DHT22;5707;49.588;12.148;2022-12-18T17:16:06;-9.30;99.90
11304;DHT22;5707;49.588;12.148;2022-12-18T17:18:32;-9.20;99.90
11304;DHT22;5707;49.588;12.148;2022-12-18T17:21:03;-9.20;99.90
11304;DHT22;5707;49.588;12.148;2022-12-18T17:23:29;-9.10;99.90
11304;DHT22;5707;49.588;12.148;2022-12-18T17:25:59;-9.10;99.90
11304;DHT22;5707;49.588;12.148;2022-12-18T17:28:26;-9.20;99.90
11304;DHT22;5707;49.588;12.148;2022-12-18T17:30:53;-9.10;99.90